Time;durP1;ratioP1;P1;durP2;ratioP2;P2;SDS_P1;SDS_P2;PMS_P1;PMS_P2;Temp;Humidity;BMP_temperature;BMP_pressure;BME280_temperature;BME280_humidity;BME280_pressure;Samples;Min_cycle;Max_cycle;Signal;HPM_P1;HPM_P2
2022/05/31 00:01:40;;;;;;;0.00;0.00;;;;;;;6.56;100.00;100354.53;5072565;28;20178;-73
2022/05/31 00:04:06;;;;;;;0.00;0.00;;;;;;;6.60;100.00;100346.59;5072480;28;20178;-73
2022/05/31 00:06:32;;;;;;;0.00;0.00;;;;;;;6.65;100.00;100343.00;5072435;28;20670;-74
2022/05/31 00:08:57;;;;;;;0.00;0.00;;;;;;;6.57;100.00;100352.59;5072273;28;20228;-73
2022/05/31 00:11:23;;;;;;;0.00;0.00;;;;;;;6.49;100.00;100348.59;5072691;28;20216;-72
2022/05/31 00:13:48;;;;;;;0.00;0.00;;;;;;;6.41;100.00;100345.72;5072264;28;20175;-73
2022/05/31 00:16:13;;;;;;;0.00;0.00;;;;;;;6.30;100.00;100339.56;5072184;28;20635;-73
2022/05/31 00:18:39;;;;;;;0.00;0.00;;;;;;;6.21;100.00;100352.13;5066483;28;20174;-75
2022/05/31 00:21:06;;;;;;;0.00;0.00;;;;;;;6.23;100.00;100352.66;5071728;28;20174;-73
2022/05/31 00:23:31;;;;;;;0.00;0.00;;;;;;;6.28;100.00;100340.94;5072080;28;20194;-73
2022/05/31 00:25:57;;;;;;;0.00;0.00;;;;;;;6.29;100.00;100337.16;5072097;28;20209;-70
2022/05/31 00:28:23;;;;;;;0.00;0.00;;;;;;;6.29;100.00;100335.25;5071827;28;20220;-71
2022/05/31 00:30:49;;;;;;;0.00;0.00;;;;;;;6.35;100.00;100334.09;5072264;28;20174;-70
2022/05/31 00:33:14;;;;;;;0.23;0.23;;;;;;;6.43;100.00;100332.66;5071908;28;20178;-70
2022/05/31 00:35:44;;;;;;;0.00;0.00;;;;;;;6.48;100.00;100329.91;5071849;28;20198;-71
2022/05/31 00:38:09;;;;;;;0.60;0.60;;;;;;;6.45;100.00;100342.13;5071561;28;20170;-71
2022/05/31 00:40:36;;;;;;;0.00;0.00;;;;;;;6.42;100.00;100331.84;5071784;28;20166;-71
2022/05/31 00:43:06;;;;;;;0.00;0.00;;;;;;;6.33;100.00;100333.56;5071374;28;20177;-73
2022/05/31 00:45:39;;;;;;;0.00;0.00;;;;;;;6.26;100.00;100333.09;5071393;28;20502;-71
2022/05/31 00:48:09;;;;;;;0.00;0.00;;;;;;;6.24;100.00;100333.38;5071426;28;20171;-71
2022/05/31 00:50:42;;;;;;;0.07;0.07;;;;;;;6.09;100.00;100332.72;5071767;28;20170;-70
2022/05/31 00:53:14;;;;;;;0.00;0.00;;;;;;;5.97;100.00;100342.03;5071543;28;20297;-70
2022/05/31 00:55:48;;;;;;;0.00;0.00;;;;;;;5.90;100.00;100336.09;5071527;28;20706;-72
2022/05/31 00:58:35;;;;;;;0.00;0.00;;;;;;;5.83;100.00;100341.00;5071473;28;20638;-73
2022/05/31 01:01:04;;;;;;;0.00;0.00;;;;;;;5.80;100.00;100335.34;5071508;28;20618;-72
2022/05/31 01:03:32;;;;;;;0.00;0.00;;;;;;;5.77;100.00;100334.00;5071629;28;20176;-73
2022/05/31 01:05:58;;;;;;;0.00;0.00;;;;;;;5.77;100.00;100338.59;5071451;28;20170;-73
2022/05/31 01:08:23;;;;;;;0.00;0.00;;;;;;;5.65;100.00;100334.38;5069444;28;20174;-73
2022/05/31 01:10:49;;;;;;;0.00;0.00;;;;;;;5.62;100.00;100336.81;5069968;28;20219;-73
2022/05/31 01:13:16;;;;;;;0.00;0.00;;;;;;;5.52;100.00;100328.75;5071881;28;20174;-73
2022/05/31 01:15:46;;;;;;;0.00;0.00;;;;;;;5.55;100.00;100328.19;5071577;28;20190;-74
2022/05/31 01:18:13;;;;;;;0.57;0.57;;;;;;;5.64;100.00;100335.47;5071134;28;20424;-73
2022/05/31 01:20:38;;;;;;;0.00;0.00;;;;;;;5.55;100.00;100333.63;5071083;28;20166;-72
2022/05/31 01:23:11;;;;;;;0.00;0.00;;;;;;;5.49;100.00;100332.00;5071317;28;20170;-73
2022/05/31 01:25:43;;;;;;;0.00;0.00;;;;;;;5.45;100.00;100330.97;5071314;28;20169;-72
2022/05/31 01:28:39;;;;;;;0.00;0.00;;;;;;;5.43;100.00;100325.81;5071128;28;20181;-73
2022/05/31 01:31:15;;;;;;;0.00;0.00;;;;;;;5.40;100.00;100326.38;5071174;28;20165;-73
2022/05/31 01:33:50;;;;;;;0.00;0.00;;;;;;;5.39;100.00;100332.91;5070963;28;20178;-73
2022/05/31 01:36:19;;;;;;;0.00;0.00;;;;;;;5.42;100.00;100334.22;5070834;28;20608;-74
2022/05/31 01:39:03;;;;;;;0.00;0.00;;;;;;;5.49;100.00;100334.72;5070979;28;20178;-73
2022/05/31 01:41:38;;;;;;;0.00;0.00;;;;;;;5.50;100.00;100336.38;5067913;28;20592;-74
2022/05/31 01:44:08;;;;;;;0.00;0.00;;;;;;;5.44;100.00;100327.44;5060975;28;20193;-75
2022/05/31 01:46:35;;;;;;;0.00;0.00;;;;;;;5.46;100.00;100330.69;5070922;28;20266;-73
2022/05/31 01:49:06;;;;;;;0.00;0.00;;;;;;;5.49;100.00;100332.81;5070801;28;20181;-74
2022/05/31 01:51:33;;;;;;;0.00;0.00;;;;;;;5.56;100.00;100324.41;5071008;28;20639;-72
2022/05/31 01:53:58;;;;;;;0.00;0.00;;;;;;;5.65;100.00;100328.13;5069471;28;20562;-74
2022/05/31 01:56:25;;;;;;;0.00;0.00;;;;;;;5.64;100.00;100329.19;5070798;28;20258;-73
2022/05/31 01:58:53;;;;;;;0.00;0.00;;;;;;;5.64;100.00;100330.03;5070506;28;20561;-73
2022/05/31 02:01:19;;;;;;;0.00;0.00;;;;;;;5.61;100.00;100321.63;5070743;28;20224;-73
2022/05/31 02:03:46;;;;;;;0.00;0.00;;;;;;;5.66;100.00;100321.63;5070838;28;20174;-73
2022/05/31 02:06:35;;;;;;;0.00;0.00;;;;;;;5.72;100.00;100320.47;5070715;28;20175;-73
2022/05/31 02:09:01;;;;;;;0.00;0.00;;;;;;;5.76;100.00;100324.25;5070661;28;20159;-73
2022/05/31 02:11:27;;;;;;;0.00;0.00;;;;;;;5.84;100.00;100323.66;5070755;28;20415;-72
2022/05/31 02:13:53;;;;;;;0.00;0.00;;;;;;;5.89;100.00;100325.50;5070613;28;20757;-71
2022/05/31 02:16:18;;;;;;;0.00;0.00;;;;;;;5.95;100.00;100325.22;5070731;28;20171;-71
2022/05/31 02:21:35;;;;;;;0.00;0.00;;;;;;;5.79;100.00;100328.31;5074740;28;20201;-70
2022/05/31 02:24:05;;;;;;;0.30;0.30;;;;;;;5.82;100.00;100325.84;5074179;28;20154;-71
2022/05/31 02:26:31;;;;;;;0.00;0.00;;;;;;;5.89;100.00;100336.34;5074296;28;20202;-71
2022/05/31 02:28:57;;;;;;;0.00;0.00;;;;;;;5.97;100.00;100327.66;5072993;28;20202;-70
2022/05/31 02:31:23;;;;;;;0.00;0.00;;;;;;;5.97;100.00;100336.59;5074307;28;20182;-71
2022/05/31 02:33:49;;;;;;;0.00;0.00;;;;;;;5.88;100.00;100327.41;5074156;28;20174;-71
2022/05/31 02:36:14;;;;;;;0.00;0.00;;;;;;;5.92;100.00;100338.53;5073973;28;20289;-70
2022/05/31 02:38:40;;;;;;;0.00;0.00;;;;;;;5.97;100.00;100336.59;5073916;28;20270;-70
2022/05/31 02:41:06;;;;;;;0.00;0.00;;;;;;;6.07;100.00;100334.88;5072717;28;20694;-70
2022/05/31 02:43:32;;;;;;;0.00;0.00;;;;;;;6.15;100.00;100334.28;5073736;28;20300;-71
2022/05/31 02:46:00;;;;;;;0.00;0.00;;;;;;;6.21;100.00;100330.41;5073963;28;20250;-71
2022/05/31 02:48:25;;;;;;;0.00;0.00;;;;;;;6.17;100.00;100329.38;5073532;28;20653;-71
2022/05/31 02:50:50;;;;;;;0.43;0.43;;;;;;;6.17;100.00;100332.91;5073915;28;20281;-71
2022/05/31 02:53:16;;;;;;;0.67;0.67;;;;;;;6.20;100.00;100328.81;5073926;28;20179;-70
2022/05/31 02:55:41;;;;;;;0.00;0.00;;;;;;;6.26;100.00;100330.38;5073837;28;20198;-71
2022/05/31 02:58:06;;;;;;;0.00;0.00;;;;;;;6.31;100.00;100327.63;5074070;28;20175;-70
2022/05/31 03:00:32;;;;;;;0.00;0.00;;;;;;;6.28;100.00;100321.97;5074104;28;20173;-71
2022/05/31 03:02:57;;;;;;;0.00;0.00;;;;;;;6.24;100.00;100324.44;5073751;28;20681;-70
2022/05/31 03:05:23;;;;;;;0.00;0.00;;;;;;;6.23;100.00;100325.53;5073644;28;20170;-71
2022/05/31 03:07:48;;;;;;;0.00;0.00;;;;;;;6.24;100.00;100325.25;5073574;28;20170;-71
2022/05/31 03:10:13;;;;;;;0.00;0.00;;;;;;;6.25;100.00;100321.44;5073568;28;20640;-70
2022/05/31 03:12:39;;;;;;;0.00;0.00;;;;;;;6.25;100.00;100332.28;5073513;28;20170;-71
2022/05/31 03:15:10;;;;;;;0.00;0.00;;;;;;;6.31;100.00;100335.75;5073406;28;20230;-70
2022/05/31 03:17:40;;;;;;;0.00;0.00;;;;;;;6.33;100.00;100330.84;5073269;28;20259;-71
2022/05/31 03:20:13;;;;;;;0.00;0.00;;;;;;;6.33;100.00;100330.03;5073772;28;20178;-70
2022/05/31 03:22:44;;;;;;;0.00;0.00;;;;;;;6.25;100.00;100334.19;5073390;28;20171;-72
2022/05/31 03:25:18;;;;;;;0.00;0.00;;;;;;;6.23;100.00;100325.53;5073163;28;20240;-70
2022/05/31 03:27:44;;;;;;;0.00;0.00;;;;;;;6.16;100.00;100325.03;5071978;28;20229;-71
2022/05/31 03:30:10;;;;;;;0.00;0.00;;;;;;;6.11;100.00;100327.81;5073126;28;20179;-71
2022/05/31 03:32:36;;;;;;;0.13;0.13;;;;;;;6.03;100.00;100333.84;5073136;28;20257;-70
2022/05/31 03:35:03;;;;;;;0.00;0.00;;;;;;;5.88;100.00;100332.03;5072967;28;20277;-71
2022/05/31 03:37:28;;;;;;;0.00;0.00;;;;;;;5.77;100.00;100325.84;5072725;28;20634;-74
2022/05/31 03:39:53;;;;;;;0.00;0.00;;;;;;;5.75;100.00;100328.03;5073223;28;20198;-73
2022/05/31 03:42:18;;;;;;;0.00;0.00;;;;;;;5.81;100.00;100328.84;5072944;28;20268;-74
2022/05/31 03:44:44;;;;;;;0.00;0.00;;;;;;;5.88;100.00;100326.59;5072557;28;20198;-73
2022/05/31 03:47:09;;;;;;;0.00;0.00;;;;;;;5.93;100.00;100327.41;5072942;28;20254;-73
2022/05/31 03:49:34;;;;;;;0.00;0.00;;;;;;;5.98;100.00;100321.13;5072669;28;20205;-72
2022/05/31 03:52:00;;;;;;;0.00;0.00;;;;;;;6.07;100.00;100314.00;5071539;28;20171;-73
2022/05/31 03:54:27;;;;;;;0.00;0.00;;;;;;;6.09;100.00;100321.88;5072586;28;20198;-73
2022/05/31 03:56:52;;;;;;;0.00;0.00;;;;;;;6.05;100.00;100318.09;5072907;28;20185;-73
2022/05/31 03:59:18;;;;;;;0.00;0.00;;;;;;;5.92;100.00;100320.34;5072420;28;20788;-73
2022/05/31 04:01:43;;;;;;;0.20;0.20;;;;;;;5.85;100.00;100317.13;5072390;28;20270;-73
2022/05/31 04:04:09;;;;;;;0.00;0.00;;;;;;;5.80;100.00;100324.50;5072815;28;20202;-73
2022/05/31 04:06:38;;;;;;;0.00;0.00;;;;;;;5.82;100.00;100322.31;5072439;28;20174;-73
2022/05/31 04:09:04;;;;;;;0.00;0.00;;;;;;;5.90;100.00;100325.25;5072237;28;20179;-72
2022/05/31 04:11:30;;;;;;;0.00;0.00;;;;;;;5.88;100.00;100324.69;5072310;28;20482;-76
2022/05/31 04:13:55;;;;;;;0.00;0.00;;;;;;;5.97;100.00;100323.03;5071017;28;20682;-73
2022/05/31 04:16:21;;;;;;;0.00;0.00;;;;;;;6.12;100.00;100316.69;5072377;28;20548;-72
2022/05/31 04:18:47;;;;;;;0.00;0.00;;;;;;;6.14;100.00;100319.91;5072368;28;20179;-73
2022/05/31 04:21:16;;;;;;;0.00;0.00;;;;;;;6.14;100.00;100319.91;5070783;28;20227;-72
2022/05/31 04:23:58;;;;;;;0.00;0.00;;;;;;;6.22;100.00;100322.03;5072125;28;20174;-74
2022/05/31 04:26:28;;;;;;;0.00;0.00;;;;;;;6.28;100.00;100324.69;5071959;28;20638;-73
2022/05/31 04:28:54;;;;;;;0.00;0.00;;;;;;;6.23;100.00;100325.53;5071813;28;20231;-75
2022/05/31 04:31:19;;;;;;;0.00;0.00;;;;;;;6.29;100.00;100316.25;5072025;28;20768;-73
2022/05/31 04:33:45;;;;;;;0.00;0.00;;;;;;;6.45;100.00;100325.84;5072110;28;20184;-75
2022/05/31 04:36:14;;;;;;;0.00;0.00;;;;;;;6.63;100.00;100326.22;5072040;28;20209;-70
2022/05/31 04:38:40;;;;;;;0.00;0.00;;;;;;;6.79;100.00;100324.94;5071834;28;20528;-71
2022/05/31 04:41:06;;;;;;;0.00;0.00;;;;;;;6.99;100.00;100329.34;5071574;28;20170;-71
2022/05/31 04:43:32;;;;;;;0.00;0.00;;;;;;;7.05;100.00;100326.25;5070928;28;20200;-70
2022/05/31 04:46:07;;;;;;;0.20;0.20;;;;;;;7.18;100.00;100332.91;5071979;28;20527;-71
2022/05/31 04:48:33;;;;;;;0.00;0.00;;;;;;;6.91;100.00;100333.50;5071615;28;20194;-71
2022/05/31 04:50:58;;;;;;;0.00;0.00;;;;;;;6.95;100.00;100333.75;5068589;28;20764;-70
2022/05/31 04:53:23;;;;;;;0.00;0.00;;;;;;;7.05;100.00;100326.25;5068726;28;20269;-71
2022/05/31 04:55:49;;;;;;;0.00;0.00;;;;;;;7.08;100.00;100331.09;5071463;28;20220;-71
2022/05/31 04:58:14;;;;;;;0.00;0.00;;;;;;;7.18;100.00;100332.91;5071747;28;20185;-71
2022/05/31 05:00:39;;;;;;;0.00;0.00;;;;;;;7.37;100.00;100330.19;5071401;28;20512;-70
2022/05/31 05:03:05;;;;;;;0.00;0.00;;;;;;;7.39;100.00;100326.09;5071556;28;20185;-70
2022/05/31 05:05:32;;;;;;;0.00;0.00;;;;;;;7.34;100.00;100326.16;5071402;28;20530;-71
2022/05/31 05:07:57;;;;;;;0.00;0.00;;;;;;;7.38;100.00;100326.41;5071501;28;20170;-71
2022/05/31 05:10:22;;;;;;;0.00;0.00;;;;;;;7.51;100.00;100317.50;5071536;28;20201;-71
2022/05/31 05:12:48;;;;;;;0.00;0.00;;;;;;;7.69;100.00;100330.28;5071463;28;20182;-71
2022/05/31 05:15:13;;;;;;;0.00;0.00;;;;;;;7.86;100.00;100327.03;5071151;28;20202;-70
2022/05/31 05:17:38;;;;;;;0.00;0.00;;;;;;;8.04;100.00;100322.66;5070813;28;20178;-72
2022/05/31 05:20:04;;;;;;;1.47;1.47;;;;;;;8.18;100.00;100326.25;5071256;28;20257;-71
2022/05/31 05:22:30;;;;;;;0.00;0.00;;;;;;;8.15;100.00;100326.03;5071299;28;20190;-71
2022/05/31 05:24:55;;;;;;;0.00;0.00;;;;;;;8.25;100.00;100317.72;5071190;28;20214;-71
2022/05/31 05:27:21;;;;;;;0.00;0.00;;;;;;;8.41;100.00;100324.53;5071373;28;20175;-72
2022/05/31 05:32:29;;;;;;;0.00;0.00;;;;;;;8.35;100.00;100309.38;5071177;28;20201;-70
2022/05/31 05:34:55;;;;;;;0.00;0.00;;;;;;;8.43;100.00;100318.78;5070911;28;20650;-71
2022/05/31 05:37:21;;;;;;;18.10;5.73;;;;;;;8.37;100.00;100317.22;5070935;28;20173;-70
2022/05/31 05:39:47;;;;;;;0.00;0.00;;;;;;;8.50;100.00;100330.88;5071124;28;20174;-71
2022/05/31 05:42:13;;;;;;;0.00;0.00;;;;;;;8.45;100.00;100330.16;5070764;28;20695;-70
2022/05/31 05:44:39;;;;;;;0.00;0.00;;;;;;;8.63;100.00;100323.84;5070623;28;20261;-71
2022/05/31 05:47:06;;;;;;;0.00;0.00;;;;;;;8.65;100.00;100325.13;5070919;28;20253;-70
2022/05/31 05:49:31;;;;;;;0.00;0.00;;;;;;;8.74;100.00;100330.72;5070918;28;20174;-71
2022/05/31 05:52:00;;;;;;;0.00;0.00;;;;;;;8.82;100.00;100335.44;5071044;28;20615;-70
2022/05/31 05:54:25;;;;;;;0.00;0.00;;;;;;;9.01;100.00;100331.81;5072009;28;20249;-72
2022/05/31 05:56:51;;;;;;;0.00;0.00;;;;;;;9.17;100.00;100336.66;5075322;28;20618;-71
2022/05/31 05:59:17;;;;;;;0.00;0.00;;;;;;;9.30;99.60;100334.22;5074740;28;20195;-71
2022/05/31 06:01:49;;;;;;;0.00;0.00;;;;;;;9.29;98.64;100333.41;5074875;28;20170;-71
2022/05/31 06:04:35;;;;;;;0.00;0.00;;;;;;;9.41;99.33;100339.16;5074784;28;20155;-71
2022/05/31 06:07:16;;;;;;;0.00;0.00;;;;;;;9.46;98.44;100339.03;5074515;28;20171;-71
2022/05/31 06:09:46;;;;;;;0.00;0.00;;;;;;;9.54;98.05;100342.94;5074710;28;20158;-71
2022/05/31 06:12:17;;;;;;;0.00;0.00;;;;;;;9.52;98.67;100343.25;5074836;28;20162;-70
2022/05/31 06:14:48;;;;;;;1.03;1.03;;;;;;;9.52;100.00;100340.53;5074462;28;20725;-71
2022/05/31 06:17:19;;;;;;;0.00;0.00;;;;;;;9.60;100.00;100338.19;5074646;28;20664;-71
2022/05/31 06:19:48;;;;;;;0.00;0.00;;;;;;;9.64;98.74;100339.19;5074241;28;20646;-73
2022/05/31 06:22:13;;;;;;;0.00;0.00;;;;;;;9.69;98.68;100333.59;5074411;28;20175;-70
2022/05/31 06:24:40;;;;;;;0.00;0.00;;;;;;;9.71;99.06;100336.84;5074508;28;20603;-71
2022/05/31 06:27:06;;;;;;;0.00;0.00;;;;;;;9.70;99.93;100336.06;5074376;28;20630;-70
2022/05/31 06:29:32;;;;;;;0.27;0.27;;;;;;;9.78;99.98;100329.84;5074344;28;20177;-73
2022/05/31 06:31:57;;;;;;;0.00;0.00;;;;;;;10.00;98.01;100330.97;5074184;28;20253;-71
2022/05/31 06:34:23;;;;;;;0.00;0.00;;;;;;;10.17;97.00;100331.09;5074150;28;20202;-75
2022/05/31 06:36:49;;;;;;;0.00;0.00;;;;;;;10.38;95.20;100337.66;5074146;28;20178;-73
2022/05/31 06:39:15;;;;;;;0.00;0.00;;;;;;;10.61;92.52;100332.19;5074143;28;20174;-72
2022/05/31 06:41:40;;;;;;;0.00;0.00;;;;;;;10.96;86.56;100344.03;5073850;28;20171;-71
2022/05/31 06:44:06;;;;;;;0.00;0.00;;;;;;;11.10;84.47;100333.81;5073286;28;20304;-70
2022/05/31 06:46:31;;;;;;;0.00;0.00;;;;;;;11.40;83.10;100325.81;5073466;28;20171;-70
2022/05/31 06:48:59;;;;;;;0.20;0.20;;;;;;;11.61;80.66;100324.91;5073298;28;20236;-71
2022/05/31 06:56:55;;;;;;;0.00;0.00;;;;;;;11.78;75.31;100332.31;5073411;28;20738;-72
2022/05/31 06:59:20;;;;;;;0.00;0.00;;;;;;;11.86;74.06;100331.53;5073104;28;20182;-71
2022/05/31 07:01:47;;;;;;;0.00;0.00;;;;;;;11.84;73.34;100325.56;5073135;28;20634;-70
2022/05/31 07:04:13;;;;;;;0.00;0.00;;;;;;;11.96;72.90;100326.84;5073218;28;20569;-75
2022/05/31 07:06:38;;;;;;;0.00;0.00;;;;;;;12.11;72.99;100335.38;5072746;28;20263;-73
2022/05/31 07:09:04;;;;;;;0.00;0.00;;;;;;;12.25;72.79;100329.69;5073111;28;20178;-73
2022/05/31 07:11:29;;;;;;;0.00;0.00;;;;;;;12.41;72.17;100330.78;5072990;28;20171;-72
2022/05/31 07:13:55;;;;;;;0.00;0.00;;;;;;;12.48;72.07;100322.09;5071633;28;20171;-74
2022/05/31 07:16:20;;;;;;;0.00;0.00;;;;;;;12.75;73.88;100318.13;5071605;28;20240;-74
2022/05/31 07:18:46;;;;;;;0.00;0.00;;;;;;;12.79;74.78;100327.28;5072795;28;20174;-72
2022/05/31 07:21:11;;;;;;;0.00;0.00;;;;;;;12.76;72.07;100317.00;5072880;28;20635;-71
2022/05/31 07:23:40;;;;;;;0.00;0.00;;;;;;;12.83;73.71;100320.00;5072822;28;20185;-72
2022/05/31 07:26:07;;;;;;;0.00;0.00;;;;;;;12.93;72.67;100321.59;5072734;28;20181;-71
2022/05/31 07:28:32;;;;;;;0.00;0.00;;;;;;;12.87;71.07;100320.94;5072567;28;20174;-72
2022/05/31 07:31:00;;;;;;;0.00;0.00;;;;;;;12.84;69.66;100313.38;5072578;28;20266;-72
2022/05/31 07:33:25;;;;;;;0.00;0.00;;;;;;;12.96;68.14;100318.19;5072854;28;20167;-73
2022/05/31 07:35:50;;;;;;;0.00;0.00;;;;;;;13.12;67.39;100324.72;5072511;28;20206;-73
2022/05/31 07:38:20;;;;;;;0.50;0.10;;;;;;;13.28;65.00;100319.47;5071207;28;20182;-72
2022/05/31 07:40:46;;;;;;;0.00;0.00;;;;;;;13.37;62.93;100315.56;5072501;28;20189;-73
2022/05/31 07:43:11;;;;;;;0.00;0.00;;;;;;;13.37;61.10;100314.75;5072141;28;20210;-71
2022/05/31 07:45:38;;;;;;;0.00;0.00;;;;;;;13.39;61.71;100312.47;5072388;28;20210;-73
2022/05/31 07:48:04;;;;;;;0.00;0.00;;;;;;;13.40;62.10;100311.34;5072147;28;20202;-72
2022/05/31 07:50:29;;;;;;;0.00;0.00;;;;;;;13.70;62.34;100310.13;5068884;28;20476;-75
2022/05/31 07:52:54;;;;;;;0.00;0.00;;;;;;;13.81;61.43;100307.78;5072132;28;20182;-72
2022/05/31 07:55:20;;;;;;;0.00;0.00;;;;;;;13.76;59.30;100302.50;5071914;28;20203;-73
2022/05/31 08:00:30;;;;;;;0.00;0.00;;;;;;;13.72;60.09;100304.31;5072227;28;20240;-71
2022/05/31 08:02:56;;;;;;;0.00;0.00;;;;;;;13.83;58.06;100304.69;5070799;28;20531;-71
2022/05/31 08:05:21;;;;;;;0.00;0.00;;;;;;;14.05;59.57;100298.84;5072026;28;20258;-71
2022/05/31 08:07:47;;;;;;;0.00;0.00;;;;;;;14.19;59.60;100301.31;5071774;28;20335;-71
2022/05/31 08:10:13;;;;;;;0.00;0.00;;;;;;;14.43;58.77;100289.56;5071994;28;20181;-71
2022/05/31 08:12:39;;;;;;;0.00;0.00;;;;;;;14.40;56.92;100287.50;5071847;28;20228;-71
2022/05/31 08:15:06;;;;;;;0.00;0.00;;;;;;;14.46;55.44;100295.19;5067483;28;20232;-73
2022/05/31 08:17:31;;;;;;;0.00;0.00;;;;;;;14.48;55.07;100286.63;5068982;28;20171;-73
2022/05/31 08:19:56;;;;;;;0.00;0.00;;;;;;;14.47;55.30;100290.53;5071517;28;20699;-72
2022/05/31 08:22:22;;;;;;;0.00;0.00;;;;;;;14.44;54.80;100281.00;5071446;28;20716;-72
2022/05/31 08:24:49;;;;;;;0.00;0.00;;;;;;;14.45;55.26;100281.78;5071438;28;20179;-72
2022/05/31 08:27:14;;;;;;;0.10;0.10;;;;;;;14.41;55.08;100280.84;5071832;28;20197;-73
2022/05/31 08:29:41;;;;;;;0.00;0.00;;;;;;;14.33;54.24;100277.06;5071496;28;20197;-73
2022/05/31 08:32:07;;;;;;;1.30;0.53;;;;;;;14.40;53.50;100274.53;5071380;28;20656;-73
2022/05/31 08:34:32;;;;;;;0.47;0.20;;;;;;;14.42;53.22;100276.94;5071169;28;20198;-72
2022/05/31 08:36:58;;;;;;;0.00;0.00;;;;;;;14.41;52.59;100270.66;5071572;28;20171;-71
2022/05/31 08:39:23;;;;;;;0.00;0.00;;;;;;;14.55;52.31;100265.66;5071435;28;20236;-73
2022/05/31 08:41:52;;;;;;;0.00;0.00;;;;;;;14.65;52.80;100260.88;5071608;28;20218;-73
2022/05/31 08:44:34;;;;;;;0.00;0.00;;;;;;;14.65;50.96;100261.66;5071005;28;20582;-72
2022/05/31 08:47:18;;;;;;;0.20;0.20;;;;;;;14.87;50.79;100255.69;5070959;28;20175;-72
2022/05/31 08:52:47;;;;;;;0.00;0.00;;;;;;;15.20;51.17;100262.22;5071189;28;20251;-72
2022/05/31 08:58:10;;;;;;;0.00;0.00;;;;;;;14.97;52.21;100248.13;5070820;28;20243;-71
2022/05/31 09:00:41;;;;;;;0.17;0.10;;;;;;;14.90;51.94;100251.47;5070861;28;20174;-71
2022/05/31 09:03:21;;;;;;;0.10;0.10;;;;;;;14.91;51.36;100252.28;5070989;28;20467;-72
2022/05/31 09:06:14;;;;;;;0.00;0.00;;;;;;;14.88;52.45;100253.75;5070761;28;20527;-70
2022/05/31 09:09:03;;;;;;;0.00;0.00;;;;;;;14.81;53.34;100251.59;5052730;28;20191;-71
2022/05/31 09:11:52;;;;;;;0.00;0.00;;;;;;;15.16;54.67;100251.06;5070522;28;20179;-71
2022/05/31 09:14:25;;;;;;;0.20;0.20;;;;;;;15.43;52.20;100249.53;5032061;28;20195;-71
2022/05/31 09:16:58;;;;;;;0.00;0.00;;;;;;;15.55;53.55;100248.69;5069113;28;20175;-71
2022/05/31 09:19:33;;;;;;;0.50;0.50;;;;;;;15.72;49.62;100248.41;5070431;28;20491;-71
2022/05/31 09:22:01;;;;;;;0.00;0.00;;;;;;;15.70;47.86;100242.47;5063448;28;20207;-71
2022/05/31 09:24:27;;;;;;;0.00;0.00;;;;;;;15.42;46.94;100237.72;5062573;28;20638;-71
2022/05/31 09:27:05;;;;;;;0.00;0.00;;;;;;;15.65;49.86;100239.97;5068014;28;20206;-72
2022/05/31 09:29:52;;;;;;;0.00;0.00;;;;;;;15.86;50.32;100250.78;5070426;28;20240;-70
2022/05/31 09:32:46;;;;;;;0.00;0.00;;;;;;;15.94;50.38;100238.81;5070870;28;20178;-71
2022/05/31 09:35:21;;;;;;;0.97;0.97;;;;;;;15.81;49.30;100240.03;5070512;28;20198;-71
2022/05/31 09:38:07;;;;;;;0.13;0.13;;;;;;;15.82;50.12;100231.41;5069663;28;20307;-71
2022/05/31 09:40:38;;;;;;;0.00;0.00;;;;;;;15.74;49.01;100232.34;5066756;28;20221;-71
2022/05/31 09:43:13;;;;;;;0.10;0.10;;;;;;;15.93;48.90;100224.22;5068010;28;20182;-71
2022/05/31 09:45:48;;;;;;;0.33;0.33;;;;;;;15.70;46.94;100220.44;5067443;28;20549;-71
2022/05/31 09:48:14;;;;;;;0.17;0.17;;;;;;;15.84;48.07;100231.84;5070242;28;20178;-72
2022/05/31 09:50:41;;;;;;;0.00;0.00;;;;;;;16.14;51.33;100234.22;5070388;28;20178;-72
2022/05/31 09:57:05;;;;;;;0.57;0.57;;;;;;;16.30;49.86;100237.78;5070128;28;20174;-72
2022/05/31 09:58:38;;;;;;;0.00;0.00;;;;;;;16.16;49.71;100220.88;5068418;28;20177;-71
2022/05/31 10:01:21;;;;;;;0.00;0.00;;;;;;;16.48;49.37;100230.75;5069698;28;20198;-71
2022/05/31 10:03:52;;;;;;;0.00;0.00;;;;;;;16.62;48.91;100217.31;5069243;28;20212;-71
2022/05/31 10:06:24;;;;;;;0.00;0.00;;;;;;;16.61;47.90;100221.22;5069758;28;20186;-71
2022/05/31 10:08:54;;;;;;;0.00;0.00;;;;;;;16.73;47.20;100214.03;5069408;28;20185;-71
2022/05/31 10:11:43;;;;;;;0.00;0.00;;;;;;;16.74;48.41;100212.88;5070466;28;20182;-71
2022/05/31 10:14:34;;;;;;;0.00;0.00;;;;;;;16.47;47.47;100198.81;5069960;28;20653;-71
2022/05/31 10:17:28;;;;;;;0.00;0.00;;;;;;;16.52;47.46;100200.53;5063274;28;20260;-71
2022/05/31 10:20:25;;;;;;;0.33;0.30;;;;;;;16.73;48.96;100197.50;5067270;28;20175;-71
2022/05/31 10:23:01;;;;;;;0.00;0.00;;;;;;;17.09;50.03;100199.91;5049999;28;20634;-74
2022/05/31 10:25:38;;;;;;;0.00;0.00;;;;;;;17.38;50.05;100192.22;5066804;28;20182;-73
2022/05/31 10:28:25;;;;;;;0.00;0.00;;;;;;;17.44;48.07;100196.28;5065036;28;20170;-73
2022/05/31 10:30:53;;;;;;;0.00;0.00;;;;;;;17.32;47.40;100190.91;5062394;28;20267;-71
2022/05/31 10:33:23;;;;;;;0.00;0.00;;;;;;;17.20;46.98;100189.88;5064496;28;20591;-72
2022/05/31 10:36:17;;;;;;;0.13;0.13;;;;;;;16.68;47.22;100186.75;5070002;28;20197;-71
2022/05/31 10:38:46;;;;;;;0.20;0.20;;;;;;;16.75;47.83;100184.13;5069959;28;20181;-71
2022/05/31 10:41:31;;;;;;;0.00;0.00;;;;;;;17.01;49.12;100189.06;5070947;28;20181;-71
2022/05/31 10:44:10;;;;;;;0.00;0.00;;;;;;;16.76;48.28;100186.53;5068877;28;20198;-71
2022/05/31 10:46:37;;;;;;;0.20;0.20;;;;;;;17.12;48.20;100182.63;5057708;28;20179;-73
2022/05/31 10:49:20;;;;;;;0.00;0.00;;;;;;;17.42;47.56;100184.81;5066937;28;20175;-71
2022/05/31 10:51:53;;;;;;;0.23;0.23;;;;;;;16.86;47.47;100171.38;5069946;28;20179;-71
2022/05/31 10:54:52;;;;;;;0.10;0.10;;;;;;;16.81;47.65;100175.22;5072489;28;20166;-71
2022/05/31 10:57:25;;;;;;;0.00;0.00;;;;;;;17.05;47.95;100163.13;5073797;28;20213;-71
2022/05/31 10:59:50;;;;;;;0.00;0.00;;;;;;;17.18;47.18;100172.06;5073644;28;20170;-72
2022/05/31 11:02:24;;;;;;;0.20;0.10;;;;;;;17.22;47.45;100162.72;5072212;28;20684;-71
2022/05/31 11:05:01;;;;;;;0.10;0.10;;;;;;;17.52;47.71;100164.88;5073404;28;20181;-71
2022/05/31 11:07:35;;;;;;;0.00;0.00;;;;;;;17.47;46.34;100173.44;5073434;28;20602;-71
2022/05/31 11:13:21;;;;;;;0.33;0.33;;;;;;;17.77;46.39;100166.16;5053768;28;20170;-71
2022/05/31 11:16:09;;;;;;;0.20;0.20;;;;;;;17.01;46.30;100165.00;5053494;28;20202;-72
2022/05/31 11:18:54;;;;;;;0.20;0.20;;;;;;;16.98;47.86;100164.94;5051998;28;20214;-72
2022/05/31 11:21:41;;;;;;;0.00;0.00;;;;;;;16.84;46.91;100165.44;5052749;28;20248;-72
2022/05/31 11:24:36;;;;;;;0.20;0.20;;;;;;;17.22;47.50;100157.19;5052177;28;20167;-72
2022/05/31 11:27:55;;;;;;;0.00;0.00;;;;;;;17.00;47.21;100154.34;5053470;28;20186;-71
2022/05/31 11:30:34;;;;;;;0.00;0.00;;;;;;;17.15;48.23;100159.00;4991240;28;20672;-73
2022/05/31 11:33:28;;;;;;;0.00;0.00;;;;;;;17.46;48.35;100160.81;5051835;28;20205;-75
2022/05/31 11:36:12;;;;;;;0.00;0.00;;;;;;;17.96;49.99;100164.56;5053163;28;20678;-71
2022/05/31 11:38:47;;;;;;;0.10;0.10;;;;;;;17.28;46.88;100154.13;5052967;28;20250;-71
2022/05/31 11:41:20;;;;;;;0.00;0.00;;;;;;;17.70;46.53;100155.00;5051789;28;20166;-71
2022/05/31 11:44:07;;;;;;;0.00;0.00;;;;;;;17.66;46.07;100151.34;5052682;28;20178;-72
2022/05/31 11:46:40;;;;;;;0.00;0.00;;;;;;;17.85;46.47;100156.06;5051029;28;20171;-72
2022/05/31 11:49:11;;;;;;;0.00;0.00;;;;;;;17.93;47.11;100156.97;5067803;28;20654;-71
2022/05/31 11:51:42;;;;;;;0.40;0.40;;;;;;;17.93;47.55;100151.44;5051486;28;20276;-72
2022/05/31 11:54:18;;;;;;;0.10;0.10;;;;;;;17.67;47.17;100141.09;5051124;28;20249;-71
2022/05/31 11:56:58;;;;;;;0.00;0.00;;;;;;;18.01;48.08;100145.69;5050987;28;20714;-71
2022/05/31 11:59:31;;;;;;;0.00;0.00;;;;;;;18.18;46.34;100141.63;5067142;28;20638;-71
2022/05/31 12:02:45;;;;;;;0.10;0.10;;;;;;;18.21;46.69;100127.03;5051023;28;20194;-71
2022/05/31 12:05:25;;;;;;;0.10;0.10;;;;;;;18.03;45.60;100128.72;5033020;28;20229;-71
2022/05/31 12:08:10;;;;;;;0.00;0.00;;;;;;;18.07;46.03;100132.34;5067134;28;20183;-71